Time;durP1;ratioP1;P1;durP2;ratioP2;P2;SDS_P1;SDS_P2;PMS_P1;PMS_P2;Temp;Humidity;BMP_temperature;BMP_pressure;BME280_temperature;BME280_humidity;BME280_pressure;Samples;Min_cycle;Max_cycle;Signal;HPM_P1;HPM_P2
2022/06/15 00:00:08;;;;;;;10.70;5.30;;;;;;;11.52;81.08;99577.31;4195315;83;21677;-84
2022/06/15 00:06:22;;;;;;;11.68;4.67;;;;;;;11.43;81.31;99578.14;4122401;85;21078;-84
2022/06/15 00:12:25;;;;;;;9.45;5.20;;;;;;;11.28;81.41;99581.21;4101496;85;21551;-85
2022/06/15 00:18:44;;;;;;;8.18;5.55;;;;;;;11.20;81.78;99591.83;4096277;86;21072;-84
2022/06/15 00:24:46;;;;;;;8.98;5.08;;;;;;;11.06;81.92;99584.73;4080039;86;21020;-84
2022/06/15 00:30:58;;;;;;;10.63;4.92;;;;;;;10.88;82.20;99590.47;4089475;85;21005;-84
2022/06/15 00:37:17;;;;;;;9.05;5.22;;;;;;;10.80;82.46;99596.39;4089710;85;21019;-84
2022/06/15 00:43:53;;;;;;;15.50;5.53;;;;;;;10.75;82.73;99591.20;4024128;87;21713;-84
2022/06/15 00:50:12;;;;;;;10.63;5.60;;;;;;;10.59;82.88;99593.22;4091828;85;21061;-84
2022/06/15 00:56:15;;;;;;;11.55;4.95;;;;;;;10.40;82.98;99589.66;4079352;86;21522;-84
2022/06/15 01:02:29;;;;;;;13.68;5.33;;;;;;;10.37;83.78;99585.71;4108476;86;21608;-84
2022/06/15 01:09:11;;;;;;;20.08;6.08;;;;;;;10.29;83.65;99585.34;4078310;86;21711;-83
2022/06/15 01:22:44;;;;;;;8.23;4.85;;;;;;;10.10;83.92;99592.14;4094850;86;21132;-83
2022/06/15 01:28:53;;;;;;;;;;;;;;;9.97;83.96;99593.40;4074966;86;21073;-83
2022/06/15 01:35:34;;;;;;;13.48;5.37;;;;;;;9.76;85.02;99589.36;4081774;86;20221;-83
2022/06/15 01:42:26;;;;;;;10.05;4.90;;;;;;;9.70;84.66;99587.48;4082004;86;22063;-84
2022/06/15 01:48:39;;;;;;;10.13;5.28;;;;;;;9.62;85.02;99582.19;4089918;86;21692;-84
2022/06/15 01:54:50;;;;;;;9.00;4.50;;;;;;;9.52;85.13;99574.75;4081471;86;21129;-83
2022/06/15 02:01:09;;;;;;;10.93;4.47;;;;;;;9.47;85.24;99572.28;4091410;86;21795;-83
2022/06/15 02:07:31;;;;;;;8.05;5.65;;;;;;;9.29;85.24;99571.63;4073813;86;21071;-83
2022/06/15 02:13:59;;;;;;;17.75;5.20;;;;;;;9.22;85.99;99574.19;4078652;86;21006;-84
2022/06/15 02:20:14;;;;;;;13.15;5.40;;;;;;;9.28;86.38;99578.24;4089682;86;21101;-83
2022/06/15 02:26:22;;;;;;;7.10;4.42;;;;;;;9.30;86.66;99571.27;4079596;86;21056;-83
2022/06/15 02:32:25;;;;;;;8.23;4.95;;;;;;;9.33;86.75;99577.98;4091182;86;21028;-84
2022/06/15 02:38:30;;;;;;;8.95;4.87;;;;;;;9.35;87.09;99579.21;4035579;87;21600;-83
2022/06/15 02:44:40;;;;;;;6.75;4.33;;;;;;;9.43;87.29;99576.08;4103106;86;21043;-83
2022/06/15 02:51:15;;;;;;;7.25;4.12;;;;;;;9.46;87.21;99586.30;4037061;87;21072;-83
2022/06/15 02:57:28;;;;;;;7.87;4.55;;;;;;;9.48;87.77;99575.81;4037319;86;21069;-83
2022/06/15 03:03:36;;;;;;;14.35;5.42;;;;;;;9.66;87.85;99587.98;4036168;87;21087;-83
2022/06/15 03:09:42;;;;;;;11.10;5.35;;;;;;;9.65;87.52;99588.34;4028523;86;21144;-83
2022/06/15 03:15:47;;;;;;;7.37;5.12;;;;;;;9.64;87.74;99582.06;4039623;85;20996;-83
2022/06/15 03:21:58;;;;;;;13.15;5.95;;;;;;;9.61;87.82;99584.71;3978592;86;21516;-84
2022/06/15 03:28:05;;;;;;;8.85;4.87;;;;;;;9.50;87.76;99585.27;4053274;86;21576;-83
2022/06/15 03:34:07;;;;;;;7.05;4.92;;;;;;;9.65;89.04;99600.05;4060393;86;21654;-84
2022/06/15 03:40:13;;;;;;;8.33;5.20;;;;;;;9.76;89.22;99595.63;4044869;86;21905;-84
2022/06/15 03:46:23;;;;;;;18.60;7.28;;;;;;;9.88;89.17;99602.34;4084072;85;21190;-83
2022/06/15 03:52:27;;;;;;;12.85;6.30;;;;;;;9.93;89.10;99597.98;4087592;85;21075;-84
2022/06/15 03:58:34;;;;;;;10.90;6.00;;;;;;;9.82;89.15;99590.70;4085913;85;21056;-84
2022/06/15 04:04:38;;;;;;;7.80;5.80;;;;;;;9.79;89.21;99591.41;4077775;85;21794;-83
2022/06/15 04:10:39;;;;;;;12.68;5.87;;;;;;;9.79;89.42;99588.67;4082942;85;21104;-83
2022/06/15 04:16:44;;;;;;;7.75;5.85;;;;;;;9.80;89.32;99595.72;4049896;86;21591;-84
2022/06/15 04:22:56;;;;;;;;;;;;;;;9.79;90.02;99582.61;4081978;85;21139;-84
2022/06/15 04:29:01;;;;;;;;;;;;;;;9.88;90.99;99585.94;4135410;84;20119;-84
2022/06/15 04:35:10;;;;;;;19.83;10.53;;;;;;;9.94;91.87;99592.75;4131568;84;20229;-83
2022/06/15 04:41:20;;;;;;;20.75;9.60;;;;;;;10.12;91.03;99590.42;4126514;84;21022;-84
2022/06/15 04:47:25;;;;;;;17.62;9.53;;;;;;;10.34;90.75;99585.62;4129329;84;21078;-83
2022/06/15 04:53:36;;;;;;;14.65;8.00;;;;;;;10.50;90.38;99587.17;4131497;84;21130;-83
2022/06/15 04:59:42;;;;;;;13.58;7.33;;;;;;;10.70;90.39;99587.38;4137348;85;21130;-83
2022/06/15 05:06:28;;;;;;;10.63;6.62;;;;;;;10.86;90.61;99577.70;4135167;85;21079;-85
2022/06/15 05:12:39;;;;;;;7.37;5.78;;;;;;;11.07;90.45;99583.59;4168085;84;21615;-84
2022/06/15 05:18:47;;;;;;;10.45;6.50;;;;;;;11.31;90.27;99584.59;4141273;84;21101;-84
2022/06/15 05:24:53;;;;;;;12.33;5.78;;;;;;;11.55;89.86;99584.23;4166100;84;21013;-83
2022/06/15 05:31:21;;;;;;;12.15;6.15;;;;;;;11.85;89.56;99582.97;4170108;84;21093;-83
2022/06/15 05:37:24;;;;;;;12.68;5.85;;;;;;;12.15;89.16;99588.70;4159262;84;21123;-82
2022/06/15 05:43:31;;;;;;;15.93;6.70;;;;;;;12.49;89.20;99596.42;4082061;86;21645;-85
2022/06/15 05:49:34;;;;;;;12.15;6.47;;;;;;;12.75;88.94;99591.45;4093492;86;21587;-85
2022/06/15 05:55:43;;;;;;;10.85;4.87;;;;;;;12.98;88.53;99586.61;4021130;86;21051;-83
2022/06/15 06:01:44;;;;;;;12.98;5.05;;;;;;;13.25;87.73;99600.48;4017104;86;21059;-84
2022/06/15 06:07:45;;;;;;;11.40;5.33;;;;;;;13.45;87.25;99602.62;4098026;85;21448;-84
2022/06/15 06:13:52;;;;;;;10.80;5.28;;;;;;;13.66;86.80;99597.31;4095293;85;21023;-83
2022/06/15 06:20:29;;;;;;;6.50;3.85;;;;;;;13.87;86.34;99589.23;4087297;86;21079;-84
2022/06/15 06:26:45;;;;;;;9.25;4.00;;;;;;;14.11;85.84;99600.19;4217635;83;21043;-82
2022/06/15 06:32:47;;;;;;;6.43;3.40;;;;;;;14.38;85.46;99604.90;4215898;83;21031;-84
2022/06/15 06:38:48;;;;;;;6.28;3.33;;;;;;;14.61;84.30;99614.47;4224217;83;22238;-84
2022/06/15 06:44:53;;;;;;;6.90;3.25;;;;;;;14.86;83.98;99615.36;4220533;83;21034;-84
2022/06/15 06:57:32;;;;;;;14.03;3.22;;;;;;;15.57;82.75;99607.49;4209392;83;21476;-84
2022/06/15 07:03:47;;;;;;;6.90;2.08;;;;;;;16.19;80.49;99611.21;4226640;82;21048;-85
2022/06/15 07:10:27;;;;;;;9.90;2.20;;;;;;;17.02;79.90;99612.92;4206248;82;21032;-85
2022/06/15 07:16:36;;;;;;;8.50;2.30;;;;;;;17.85;77.70;99610.63;4169153;84;21587;-87
2022/06/15 07:22:39;;;;;;;6.40;2.12;;;;;;;18.57;77.11;99608.95;4100946;85;21639;-87
2022/06/15 07:28:41;;;;;;;4.72;1.50;;;;;;;19.18;75.69;99613.94;4097620;85;20987;-85
2022/06/15 07:34:43;;;;;;;5.87;1.70;;;;;;;19.49;73.69;99612.13;3987727;87;21028;-85
2022/06/15 07:40:45;;;;;;;5.20;1.77;;;;;;;19.77;72.25;99605.33;4156170;84;21022;-87
2022/06/15 07:46:46;;;;;;;4.45;1.47;;;;;;;20.00;71.37;99608.11;4158423;84;21009;-87
2022/06/15 07:52:51;;;;;;;4.03;1.70;;;;;;;20.39;69.73;99604.05;4155901;84;21011;-86
2022/06/15 07:58:56;;;;;;;7.35;2.00;;;;;;;20.36;67.96;99609.08;4164889;84;21070;-86
2022/06/15 08:04:58;;;;;;;5.75;1.82;;;;;;;20.23;67.10;99606.13;4139036;84;21924;-85
2022/06/15 08:11:05;;;;;;;8.28;1.47;;;;;;;20.31;65.78;99606.02;4180628;84;21544;-86
2022/06/15 08:17:17;;;;;;;5.22;1.62;;;;;;;20.31;63.29;99610.98;4154451;84;21028;-86
2022/06/15 08:23:31;;;;;;;4.62;1.30;;;;;;;20.00;62.96;99602.55;4165213;84;21040;-85
2022/06/15 08:29:34;;;;;;;4.42;1.47;;;;;;;20.14;61.85;99596.77;4157200;84;21627;-86
2022/06/15 08:35:36;;;;;;;5.17;1.77;;;;;;;20.26;61.41;99598.95;4163850;83;22014;-85
2022/06/15 08:41:46;;;;;;;4.35;1.85;;;;;;;20.35;60.17;99596.39;4161709;83;21054;-87
2022/06/15 08:48:20;;;;;;;4.62;1.32;;;;;;;20.31;59.68;99593.50;4162011;84;21016;-86
2022/06/15 09:16:43;;;;;;;5.83;2.47;;;;;;;20.11;55.20;99594.81;4151764;83;21091;-87
2022/06/15 09:23:10;;;;;;;7.30;2.15;;;;;;;20.27;54.91;99599.13;4082612;86;21108;-86
2022/06/15 09:29:37;;;;;;;6.40;2.10;;;;;;;20.38;54.36;99595.54;4098346;86;21034;-85
2022/06/15 09:35:44;;;;;;;7.90;2.27;;;;;;;20.46;54.55;99593.41;4192231;83;21059;-86
2022/06/15 09:42:27;;;;;;;9.03;3.10;;;;;;;20.31;51.36;99586.55;4160481;84;21020;-85
2022/06/15 09:48:50;;;;;;;6.75;3.02;;;;;;;20.85;52.16;99572.54;4160625;84;21049;-85
2022/06/15 09:55:13;;;;;;;5.42;2.60;;;;;;;21.29;51.86;99571.99;4142890;84;21045;-85
2022/06/15 10:01:15;;;;;;;8.00;2.90;;;;;;;21.34;51.42;99575.06;4165287;83;20966;-86
2022/06/15 10:07:31;;;;;;;4.80;2.22;;;;;;;21.06;51.77;99569.34;4157537;83;20981;-86
2022/06/15 10:13:36;;;;;;;5.25;1.82;;;;;;;20.94;52.19;99574.16;4168954;83;21842;-87
2022/06/15 10:19:45;;;;;;;5.72;2.47;;;;;;;20.79;52.36;99570.09;4163393;83;21582;-85
2022/06/15 10:25:56;;;;;;;4.08;1.77;;;;;;;21.38;52.05;99569.38;4150951;83;21555;-86
2022/06/15 10:32:12;;;;;;;3.72;1.70;;;;;;;22.10;51.43;99559.64;4160329;83;20980;-85
2022/06/15 10:38:16;;;;;;;5.30;1.83;;;;;;;22.22;51.19;99553.97;4152465;84;21005;-86
2022/06/15 10:44:34;;;;;;;7.87;1.75;;;;;;;22.11;50.83;99544.50;4143880;84;21018;-87
2022/06/15 10:51:03;;;;;;;9.38;2.20;;;;;;;21.87;50.84;99537.56;4153227;84;21835;-85
2022/06/15 11:04:14;;;;;;;7.03;2.70;;;;;;;22.43;49.61;99535.23;4169116;84;21059;-87
2022/06/15 11:30:58;;;;;;;4.62;1.72;;;;;;;24.85;48.11;99516.66;4167935;83;20999;-84
2022/06/15 11:37:46;;;;;;;4.25;1.75;;;;;;;25.52;47.80;99518.38;4169906;84;21028;-85
2022/06/15 11:43:50;;;;;;;2.65;1.65;;;;;;;25.97;48.31;99505.84;4160626;84;21489;-85
2022/06/15 11:50:13;;;;;;;7.00;1.75;;;;;;;26.37;46.66;99507.73;4162454;84;21074;-86
2022/06/15 11:56:55;;;;;;;5.90;1.67;;;;;;;26.33;46.18;99504.33;3899281;89;21696;-88
2022/06/15 12:03:39;;;;;;;4.03;1.27;;;;;;;25.84;45.52;99501.62;3901003;89;21098;-86
2022/06/15 12:10:15;;;;;;;2.60;1.52;;;;;;;25.89;45.16;99504.58;3902033;85;21231;-86
2022/06/15 12:16:56;;;;;;;3.30;1.62;;;;;;;25.71;44.53;99486.95;4018574;87;21094;-84
2022/06/15 12:23:18;;;;;;;3.27;1.70;;;;;;;25.39;42.21;99484.69;4091628;85;21653;-86
2022/06/15 12:29:34;;;;;;;6.55;1.67;;;;;;;24.43;42.66;99482.01;4095702;85;21071;-85
2022/06/15 12:36:10;;;;;;;4.53;1.73;;;;;;;24.01;41.95;99482.16;4088806;86;21025;-84
2022/06/15 12:42:14;;;;;;;4.35;1.60;;;;;;;23.66;40.67;99480.58;4090309;85;21005;-84
2022/06/15 12:48:34;;;;;;;4.28;1.70;;;;;;;23.35;41.85;99474.66;4092911;85;20994;-86
2022/06/15 12:55:26;;;;;;;3.25;1.50;;;;;;;23.15;42.09;99472.86;4123967;85;20969;-85
2022/06/15 13:01:44;;;;;;;4.33;1.65;;;;;;;23.11;42.51;99469.41;4089214;85;20989;-84
2022/06/15 13:08:11;;;;;;;5.03;2.10;;;;;;;23.08;41.96;99466.09;4084989;86;21604;-84
2022/06/15 13:14:24;;;;;;;3.60;1.60;;;;;;;22.80;41.42;99462.80;4144444;85;21016;-85
2022/06/15 13:20:28;;;;;;;2.92;1.50;;;;;;;22.61;42.12;99453.24;4146919;84;21036;-84
2022/06/15 13:26:57;;;;;;;5.17;1.77;;;;;;;22.51;42.18;99448.72;4169741;84;21094;-85
2022/06/15 13:33:05;;;;;;;6.83;1.47;;;;;;;22.49;42.52;99452.59;4104371;84;21066;-87
2022/06/15 13:39:47;;;;;;;4.58;1.90;;;;;;;22.47;42.86;99447.45;4173044;84;21084;-86
2022/06/15 13:45:51;;;;;;;2.85;1.77;;;;;;;22.49;42.30;99453.35;4169846;84;21130;-84
2022/06/15 13:52:08;;;;;;;4.80;1.40;;;;;;;22.47;42.07;99448.85;4081165;86;21117;-86
2022/06/15 13:58:35;;;;;;;5.08;1.80;;;;;;;22.55;43.42;99448.81;4075876;86;21117;-85
2022/06/15 14:04:54;;;;;;;4.37;1.55;;;;;;;22.62;43.85;99441.64;4174215;84;21686;-87
2022/06/15 14:11:33;;;;;;;6.35;2.55;;;;;;;22.71;43.94;99437.56;4173502;84;21091;-86
2022/06/15 14:17:49;;;;;;;4.10;1.72;;;;;;;22.72;43.54;99443.94;4133236;84;22053;-86
2022/06/15 14:23:52;;;;;;;3.05;1.50;;;;;;;22.74;43.79;99440.86;3943843;88;21079;-86
2022/06/15 14:30:21;;;;;;;5.50;2.10;;;;;;;22.71;44.44;99426.41;3941647;88;21076;-86
2022/06/15 14:36:26;;;;;;;4.28;1.77;;;;;;;22.67;43.94;99423.55;4043446;85;21065;-85
2022/06/15 14:48:55;;;;;;;6.25;2.08;;;;;;;22.58;44.17;99415.08;4053385;86;21047;-85
2022/06/15 14:55:04;;;;;;;5.60;2.20;;;;;;;22.50;44.27;99409.51;4038260;86;21043;-85
2022/06/15 15:01:11;;;;;;;3.05;1.65;;;;;;;22.54;43.90;99406.80;4041487;86;21111;-85
2022/06/15 15:14:16;;;;;;;4.15;1.70;;;;;;;22.72;43.47;99404.87;4036415;85;21085;-86
2022/06/15 15:20:32;;;;;;;3.47;1.57;;;;;;;22.65;43.79;99389.13;4079946;84;21037;-84
2022/06/15 15:27:03;;;;;;;5.50;1.95;;;;;;;22.59;43.16;99388.12;4166489;83;21110;-84
2022/06/15 15:39:57;;;;;;;3.92;1.82;;;;;;;22.34;42.56;99374.73;4161596;84;21513;-85
2022/06/15 15:45:59;;;;;;;6.03;1.70;;;;;;;22.05;43.09;99376.81;4167714;83;21035;-84
2022/06/15 15:52:05;;;;;;;4.50;2.20;;;;;;;21.99;42.97;99367.43;4163079;83;21016;-85
2022/06/15 15:58:07;;;;;;;5.10;2.00;;;;;;;21.87;42.71;99363.38;4163737;82;21952;-85
2022/06/15 16:04:11;;;;;;;6.67;1.87;;;;;;;21.74;42.61;99373.06;4169585;83;21511;-85
2022/06/15 16:10:17;;;;;;;3.40;1.82;;;;;;;21.70;43.08;99375.17;4154464;84;21512;-85
2022/06/15 16:16:23;;;;;;;2.62;1.62;;;;;;;21.59;43.35;99371.11;4164791;84;21064;-85
2022/06/15 16:22:24;;;;;;;6.35;1.92;;;;;;;21.60;43.82;99371.27;4128723;84;21415;-85
2022/06/15 16:28:26;;;;;;;4.15;1.70;;;;;;;21.53;43.91;99366.66;4088558;85;21024;-85
2022/06/15 16:34:34;;;;;;;5.37;1.95;;;;;;;21.53;43.69;99358.31;4010993;87;21679;-85
2022/06/15 16:40:37;;;;;;;5.15;1.80;;;;;;;21.47;43.87;99352.34;3906772;91;21080;-84
2022/06/15 16:46:38;;;;;;;4.80;2.12;;;;;;;21.39;43.81;99343.38;4012660;87;21092;-85
2022/06/15 16:52:39;;;;;;;3.08;1.30;;;;;;;21.20;44.12;99345.70;3974561;88;21037;-85
2022/06/15 16:58:48;;;;;;;4.12;2.00;;;;;;;21.12;44.09;99348.49;3978481;88;21113;-85
2022/06/15 17:04:51;;;;;;;5.03;2.22;;;;;;;21.13;44.45;99348.66;3965945;87;21013;-85
2022/06/15 17:10:53;;;;;;;4.37;1.77;;;;;;;21.02;44.67;99343.17;3970868;88;21076;-85
2022/06/15 17:16:54;;;;;;;5.80;2.10;;;;;;;20.93;45.66;99345.77;3976989;88;21089;-84
2022/06/15 17:22:57;;;;;;;3.55;2.05;;;;;;;20.80;45.80;99340.72;4014269;86;22054;-84
2022/06/15 17:29:03;;;;;;;3.35;2.00;;;;;;;20.66;45.98;99336.29;4089938;86;21081;-85
2022/06/15 17:35:05;;;;;;;5.80;2.22;;;;;;;20.53;46.26;99337.42;4036301;86;21032;-85
2022/06/15 17:41:15;;;;;;;5.53;2.05;;;;;;;20.43;46.38;99332.88;3926701;86;10000042;-84
2022/06/15 17:47:24;;;;;;;7.62;2.25;;;;;;;20.34;46.64;99336.87;4040588;86;21067;-84
2022/06/15 17:53:32;;;;;;;6.20;2.17;;;;;;;20.28;46.79;99339.36;4038631;86;21033;-84
2022/06/15 17:59:33;;;;;;;5.22;2.30;;;;;;;20.10;46.93;99343.13;4031862;86;21011;-84
2022/06/15 18:05:37;;;;;;;5.80;2.60;;;;;;;20.04;46.97;99342.86;4090721;86;21018;-84
2022/06/15 18:11:46;;;;;;;6.25;2.67;;;;;;;19.98;46.97;99343.79;4016913;86;21090;-85
2022/06/15 18:17:51;;;;;;;12.00;3.08;;;;;;;19.85;47.22;99344.25;4036168;86;21887;-84
2022/06/15 18:23:55;;;;;;;9.63;2.92;;;;;;;19.65;47.60;99342.09;4041156;86;21095;-84
2022/06/15 18:37:03;;;;;;;6.10;2.30;;;;;;;19.22;48.73;99345.45;4051903;87;21048;-83
2022/06/15 18:47:34;;;;;;;4.37;2.72;;;;;;;18.93;49.47;99345.18;3932508;87;9999827;-84
2022/06/15 18:49:12;;;;;;;6.58;2.65;;;;;;;18.66;50.10;99347.20;4069952;86;20975;-84
2022/06/15 18:55:21;;;;;;;6.00;2.95;;;;;;;18.42;50.89;99351.13;4059286;86;21103;-84
2022/06/15 19:01:26;;;;;;;9.80;4.37;;;;;;;18.11;51.88;99354.52;4143892;85;21017;-83
2022/06/15 19:07:34;;;;;;;14.30;6.75;;;;;;;17.83;52.88;99365.95;4085747;86;20997;-84
2022/06/15 19:13:38;;;;;;;12.78;7.72;;;;;;;17.34;53.99;99374.00;4143627;86;21057;-84
2022/06/15 19:19:39;;;;;;;24.92;11.15;;;;;;;17.24;55.13;99381.21;4150405;85;21085;-86
2022/06/15 19:25:43;;;;;;;22.93;14.10;;;;;;;17.04;56.07;99380.98;4041998;85;21633;-84
2022/06/15 19:31:46;;;;;;;20.80;12.30;;;;;;;16.81;57.05;99383.55;4088444;86;21070;-84
2022/06/15 19:37:51;;;;;;;25.43;14.80;;;;;;;16.65;57.02;99381.88;4061408;86;21452;-83
2022/06/15 19:43:53;;;;;;;36.45;20.95;;;;;;;16.48;57.21;99390.29;4234917;84;20958;-84
2022/06/15 19:49:55;;;;;;;34.73;19.77;;;;;;;16.32;58.25;99398.27;4155350;84;21047;-84
2022/06/15 19:55:56;;;;;;;28.15;18.52;;;;;;;16.20;58.89;99398.70;4176768;84;22009;-83
2022/06/15 20:09:26;;;;;;;29.72;16.05;;;;;;;15.89;59.60;99394.13;4163145;84;21047;-84
2022/06/15 20:15:27;;;;;;;49.08;23.92;;;;;;;15.74;60.55;99398.13;4163611;84;20981;-83
2022/06/15 20:21:36;;;;;;;27.45;15.10;;;;;;;15.44;61.10;99391.09;4129117;84;21070;-84
2022/06/15 20:27:56;;;;;;;25.85;13.55;;;;;;;15.28;61.83;99394.86;4113055;85;21015;-84
2022/06/15 20:34:06;;;;;;;12.33;7.22;;;;;;;15.27;62.12;99398.78;4109650;85;21012;-85
2022/06/15 20:40:09;;;;;;;23.18;10.35;;;;;;;15.26;62.33;99399.97;4110596;85;21042;-83
2022/06/15 20:46:27;;;;;;;16.87;8.75;;;;;;;15.06;62.90;99401.58;4108982;85;21992;-85
2022/06/15 20:52:30;;;;;;;16.73;7.85;;;;;;;14.82;64.11;99416.13;4104089;85;21047;-84
2022/06/15 20:58:34;;;;;;;16.55;9.23;;;;;;;14.74;64.62;99409.03;4106196;85;21003;-84
2022/06/15 21:04:37;;;;;;;14.90;8.95;;;;;;;14.67;65.92;99408.24;4110237;85;20987;-83
2022/06/15 21:23:29;;;;;;;14.83;9.25;;;;;;;14.29;66.70;99417.20;4127607;84;21053;-83
2022/06/15 21:29:36;;;;;;;15.13;7.65;;;;;;;14.20;66.92;99412.81;4144156;83;21429;-83
2022/06/15 21:35:38;;;;;;;14.10;7.87;;;;;;;14.14;67.33;99410.86;4152277;84;21108;-83
2022/06/15 21:41:39;;;;;;;13.70;7.03;;;;;;;14.00;67.60;99410.20;4157046;84;21083;-83
2022/06/15 21:47:51;;;;;;;14.40;8.00;;;;;;;13.88;68.24;99397.36;4168219;84;21023;-83
2022/06/15 21:53:55;;;;;;;12.40;7.60;;;;;;;13.79;68.42;99389.48;4164341;84;21116;-83
2022/06/15 21:59:58;;;;;;;13.45;6.15;;;;;;;13.73;69.33;99384.73;4162652;84;21486;-83
2022/06/15 22:06:02;;;;;;;13.00;7.95;;;;;;;13.59;69.95;99380.54;4096232;85;21633;-83
2022/06/15 22:12:05;;;;;;;12.50;7.80;;;;;;;13.51;70.68;99374.80;4161322;84;21918;-83
2022/06/15 22:18:09;;;;;;;10.53;6.25;;;;;;;13.49;71.11;99381.25;4162470;84;21474;-83
2022/06/15 22:24:13;;;;;;;14.87;6.42;;;;;;;13.68;71.78;99379.59;4124638;84;20989;-84
2022/06/15 22:30:17;;;;;;;10.65;6.40;;;;;;;13.77;72.02;99373.14;4058278;86;21084;-82
2022/06/15 22:36:19;;;;;;;11.30;6.33;;;;;;;13.69;71.53;99375.08;4193546;83;21070;-83
2022/06/15 22:42:20;;;;;;;12.30;6.58;;;;;;;13.74;72.36;99376.09;4213964;83;21029;-83
2022/06/15 22:54:49;;;;;;;12.28;6.53;;;;;;;13.57;72.67;99371.88;4209679;83;21006;-83
2022/06/15 23:00:52;;;;;;;13.25;6.55;;;;;;;13.46;73.19;99377.91;4211139;83;22056;-83
2022/06/15 23:06:54;;;;;;;10.08;6.72;;;;;;;13.35;73.23;99371.55;4220838;83;21654;-84
2022/06/15 23:12:58;;;;;;;12.13;7.40;;;;;;;13.38;74.05;99368.83;4209196;83;21672;-83
2022/06/15 23:18:59;;;;;;;13.30;7.00;;;;;;;13.38;73.96;99367.45;4201114;83;21058;-83
2022/06/15 23:25:01;;;;;;;11.70;6.42;;;;;;;13.33;73.62;99369.77;4187297;83;21599;-83
2022/06/15 23:31:08;;;;;;;8.68;5.78;;;;;;;13.18;74.62;99366.16;4166833;84;22037;-83
2022/06/15 23:37:11;;;;;;;11.40;6.62;;;;;;;13.19;74.59;99375.97;4174101;84;21020;-82
2022/06/15 23:43:13;;;;;;;11.38;6.62;;;;;;;13.18;75.44;99373.03;4167744;84;21023;-82
2022/06/15 23:49:14;;;;;;;11.35;7.22;;;;;;;13.12;75.71;99366.31;4168795;84;21915;-82
2022/06/15 23:55:19;;;;;;;12.58;6.80;;;;;;;13.04;76.11;99361.94;4163005;84;21079;-83
